Terminal Aerodrome Forecast
Issued by NWS Cleveland, OH

Home | Current Version | Previous Version | Graphics & Text | Print | Product List | Glossary On
Versions: 1 2 3 4 5 6 7 8 9 10 11 12 13 14 15 16 17 18 19 20 21 22 23
000
FTUS41 KCLE 170048 AAB
TAFERI
TAF AMD
KERI 170048Z 1701/1724 30007KT P6SM SCT035
     FM170400 22004KT P6SM SCT028
     FM170900 17005KT P6SM BKN200
     FM171500 18010KT P6SM SCT035 BKN200=

USA.gov is the U.S. government's official web portal to all federal, state and local government web resources and services.